sensor_id;sensor_type;location;lat;lon;timestamp;P1;durP1;ratioP1;P2;durP2;ratioP2
21114;SDS011;10715;48.546;9.896;2024-01-15T00:02:13;19.83;;;7.83;;
21114;SDS011;10715;48.546;9.896;2024-01-15T00:04:39;13.90;;;5.83;;
21114;SDS011;10715;48.546;9.896;2024-01-15T00:07:06;20.65;;;7.72;;
21114;SDS011;10715;48.546;9.896;2024-01-15T00:09:32;15.73;;;6.13;;
21114;SDS011;10715;48.546;9.896;2024-01-15T00:11:58;18.10;;;8.07;;
21114;SDS011;10715;48.546;9.896;2024-01-15T00:14:24;16.50;;;7.25;;
21114;SDS011;10715;48.546;9.896;2024-01-15T00:16:50;16.23;;;7.10;;
21114;SDS011;10715;48.546;9.896;2024-01-15T00:19:17;13.60;;;5.93;;
21114;SDS011;10715;48.546;9.896;2024-01-15T00:21:43;16.10;;;6.27;;
21114;SDS011;10715;48.546;9.896;2024-01-15T00:24:09;21.30;;;8.80;;
21114;SDS011;10715;48.546;9.896;2024-01-15T00:26:35;21.27;;;8.17;;
21114;SDS011;10715;48.546;9.896;2024-01-15T00:29:01;35.10;;;13.63;;
21114;SDS011;10715;48.546;9.896;2024-01-15T00:31:28;30.95;;;12.15;;
21114;SDS011;10715;48.546;9.896;2024-01-15T00:33:54;40.95;;;15.98;;
21114;SDS011;10715;48.546;9.896;2024-01-15T00:36:20;53.03;;;14.70;;
21114;SDS011;10715;48.546;9.896;2024-01-15T00:38:46;34.90;;;14.23;;
21114;SDS011;10715;48.546;9.896;2024-01-15T00:41:13;49.27;;;17.10;;
21114;SDS011;10715;48.546;9.896;2024-01-15T00:43:39;48.80;;;16.73;;
21114;SDS011;10715;48.546;9.896;2024-01-15T00:46:05;47.07;;;16.77;;
21114;SDS011;10715;48.546;9.896;2024-01-15T00:48:31;47.13;;;17.70;;
21114;SDS011;10715;48.546;9.896;2024-01-15T00:50:57;43.53;;;17.40;;
21114;SDS011;10715;48.546;9.896;2024-01-15T00:53:22;41.30;;;16.27;;
21114;SDS011;10715;48.546;9.896;2024-01-15T00:55:48;49.97;;;15.30;;
21114;SDS011;10715;48.546;9.896;2024-01-15T00:58:14;31.83;;;15.00;;
21114;SDS011;10715;48.546;9.896;2024-01-15T01:00:41;52.53;;;16.27;;
21114;SDS011;10715;48.546;9.896;2024-01-15T01:03:06;36.67;;;15.97;;
21114;SDS011;10715;48.546;9.896;2024-01-15T01:05:33;42.35;;;13.93;;
21114;SDS011;10715;48.546;9.896;2024-01-15T01:07:59;51.80;;;16.20;;
21114;SDS011;10715;48.546;9.896;2024-01-15T01:10:25;37.20;;;11.77;;
21114;SDS011;10715;48.546;9.896;2024-01-15T01:12:51;23.13;;;11.40;;
21114;SDS011;10715;48.546;9.896;2024-01-15T01:15:16;30.87;;;13.37;;
21114;SDS011;10715;48.546;9.896;2024-01-15T01:17:42;49.37;;;14.23;;
21114;SDS011;10715;48.546;9.896;2024-01-15T01:20:08;35.40;;;12.50;;
21114;SDS011;10715;48.546;9.896;2024-01-15T01:22:35;46.30;;;15.68;;
21114;SDS011;10715;48.546;9.896;2024-01-15T01:25:01;32.57;;;13.53;;
21114;SDS011;10715;48.546;9.896;2024-01-15T01:27:27;47.67;;;16.00;;
21114;SDS011;10715;48.546;9.896;2024-01-15T01:29:53;37.90;;;14.73;;
21114;SDS011;10715;48.546;9.896;2024-01-15T01:32:19;28.97;;;11.33;;
21114;SDS011;10715;48.546;9.896;2024-01-15T01:34:45;25.17;;;12.00;;
21114;SDS011;10715;48.546;9.896;2024-01-15T01:37:11;27.63;;;11.40;;
21114;SDS011;10715;48.546;9.896;2024-01-15T01:39:38;33.07;;;14.50;;
21114;SDS011;10715;48.546;9.896;2024-01-15T01:42:04;31.20;;;11.57;;
21114;SDS011;10715;48.546;9.896;2024-01-15T01:44:30;35.70;;;13.07;;
21114;SDS011;10715;48.546;9.896;2024-01-15T01:46:57;38.93;;;15.20;;
21114;SDS011;10715;48.546;9.896;2024-01-15T01:49:24;30.20;;;13.60;;
21114;SDS011;10715;48.546;9.896;2024-01-15T01:51:52;29.63;;;11.57;;
21114;SDS011;10715;48.546;9.896;2024-01-15T01:54:28;41.53;;;15.77;;
21114;SDS011;10715;48.546;9.896;2024-01-15T01:57:01;37.25;;;14.15;;
21114;SDS011;10715;48.546;9.896;2024-01-15T01:59:38;38.57;;;13.20;;
21114;SDS011;10715;48.546;9.896;2024-01-15T02:02:04;40.45;;;14.10;;
21114;SDS011;10715;48.546;9.896;2024-01-15T02:04:34;33.58;;;11.68;;
21114;SDS011;10715;48.546;9.896;2024-01-15T02:07:04;24.23;;;13.73;;
21114;SDS011;10715;48.546;9.896;2024-01-15T02:09:35;21.20;;;10.35;;
21114;SDS011;10715;48.546;9.896;2024-01-15T02:12:01;25.88;;;8.68;;
21114;SDS011;10715;48.546;9.896;2024-01-15T02:14:27;29.63;;;11.37;;
21114;SDS011;10715;48.546;9.896;2024-01-15T02:16:56;30.33;;;12.27;;
21114;SDS011;10715;48.546;9.896;2024-01-15T02:19:24;29.27;;;10.82;;
21114;SDS011;10715;48.546;9.896;2024-01-15T02:21:56;25.15;;;10.88;;
21114;SDS011;10715;48.546;9.896;2024-01-15T02:24:22;35.47;;;12.35;;
21114;SDS011;10715;48.546;9.896;2024-01-15T02:26:51;23.00;;;10.80;;
21114;SDS011;10715;48.546;9.896;2024-01-15T02:29:17;29.42;;;11.30;;
21114;SDS011;10715;48.546;9.896;2024-01-15T02:31:43;26.40;;;10.05;;
21114;SDS011;10715;48.546;9.896;2024-01-15T02:34:09;29.97;;;11.40;;
21114;SDS011;10715;48.546;9.896;2024-01-15T02:36:38;18.63;;;7.43;;
21114;SDS011;10715;48.546;9.896;2024-01-15T02:39:07;30.52;;;11.27;;
21114;SDS011;10715;48.546;9.896;2024-01-15T02:41:41;25.77;;;9.65;;
21114;SDS011;10715;48.546;9.896;2024-01-15T02:44:10;19.75;;;10.23;;
21114;SDS011;10715;48.546;9.896;2024-01-15T02:46:44;22.45;;;10.20;;
21114;SDS011;10715;48.546;9.896;2024-01-15T02:49:22;28.10;;;11.55;;
21114;SDS011;10715;48.546;9.896;2024-01-15T02:51:48;19.43;;;8.23;;
21114;SDS011;10715;48.546;9.896;2024-01-15T02:54:14;29.97;;;11.00;;
21114;SDS011;10715;48.546;9.896;2024-01-15T02:56:49;20.23;;;10.88;;
21114;SDS011;10715;48.546;9.896;2024-01-15T02:59:23;25.90;;;9.07;;
21114;SDS011;10715;48.546;9.896;2024-01-15T03:01:49;22.58;;;9.60;;
21114;SDS011;10715;48.546;9.896;2024-01-15T03:04:18;30.05;;;7.80;;
21114;SDS011;10715;48.546;9.896;2024-01-15T03:06:47;25.50;;;9.02;;
21114;SDS011;10715;48.546;9.896;2024-01-15T03:09:18;22.33;;;8.00;;
21114;SDS011;10715;48.546;9.896;2024-01-15T03:11:44;21.48;;;7.80;;
21114;SDS011;10715;48.546;9.896;2024-01-15T03:14:12;29.03;;;9.20;;
21114;SDS011;10715;48.546;9.896;2024-01-15T03:16:43;27.95;;;9.15;;
21114;SDS011;10715;48.546;9.896;2024-01-15T03:19:13;21.77;;;8.10;;
21114;SDS011;10715;48.546;9.896;2024-01-15T03:21:39;21.65;;;7.95;;
21114;SDS011;10715;48.546;9.896;2024-01-15T03:24:04;25.47;;;11.23;;
21114;SDS011;10715;48.546;9.896;2024-01-15T03:26:30;30.47;;;8.80;;
21114;SDS011;10715;48.546;9.896;2024-01-15T03:28:56;25.03;;;8.60;;
21114;SDS011;10715;48.546;9.896;2024-01-15T03:31:26;20.73;;;9.32;;
21114;SDS011;10715;48.546;9.896;2024-01-15T03:33:55;19.83;;;6.97;;
21114;SDS011;10715;48.546;9.896;2024-01-15T03:36:23;33.95;;;10.50;;
21114;SDS011;10715;48.546;9.896;2024-01-15T03:38:55;24.67;;;10.82;;
21114;SDS011;10715;48.546;9.896;2024-01-15T03:41:24;32.92;;;9.10;;
21114;SDS011;10715;48.546;9.896;2024-01-15T03:43:52;19.20;;;8.00;;
21114;SDS011;10715;48.546;9.896;2024-01-15T03:46:21;22.77;;;7.30;;
21114;SDS011;10715;48.546;9.896;2024-01-15T03:48:55;14.80;;;4.82;;
21114;SDS011;10715;48.546;9.896;2024-01-15T03:51:33;10.77;;;3.57;;
21114;SDS011;10715;48.546;9.896;2024-01-15T03:54:05;4.88;;;3.72;;
21114;SDS011;10715;48.546;9.896;2024-01-15T03:56:34;10.32;;;4.03;;
21114;SDS011;10715;48.546;9.896;2024-01-15T03:59:00;4.22;;;2.80;;
21114;SDS011;10715;48.546;9.896;2024-01-15T04:01:26;8.20;;;3.30;;
21114;SDS011;10715;48.546;9.896;2024-01-15T04:03:53;4.35;;;2.83;;
21114;SDS011;10715;48.546;9.896;2024-01-15T04:06:18;3.77;;;2.70;;
21114;SDS011;10715;48.546;9.896;2024-01-15T04:08:44;11.03;;;3.93;;
21114;SDS011;10715;48.546;9.896;2024-01-15T04:13:38;6.85;;;3.47;;
21114;SDS011;10715;48.546;9.896;2024-01-15T04:16:04;7.57;;;2.70;;
21114;SDS011;10715;48.546;9.896;2024-01-15T04:18:30;10.53;;;3.80;;
21114;SDS011;10715;48.546;9.896;2024-01-15T04:20:55;10.50;;;2.70;;
21114;SDS011;10715;48.546;9.896;2024-01-15T04:23:21;7.70;;;3.20;;
21114;SDS011;10715;48.546;9.896;2024-01-15T04:25:47;10.33;;;2.90;;
21114;SDS011;10715;48.546;9.896;2024-01-15T04:28:13;3.13;;;1.93;;
21114;SDS011;10715;48.546;9.896;2024-01-15T04:30:38;6.27;;;2.53;;
21114;SDS011;10715;48.546;9.896;2024-01-15T04:33:04;5.23;;;2.40;;
21114;SDS011;10715;48.546;9.896;2024-01-15T04:35:30;3.37;;;2.50;;
21114;SDS011;10715;48.546;9.896;2024-01-15T04:37:56;6.63;;;2.55;;
21114;SDS011;10715;48.546;9.896;2024-01-15T04:40:22;7.33;;;3.00;;
21114;SDS011;10715;48.546;9.896;2024-01-15T04:42:47;2.50;;;1.90;;
21114;SDS011;10715;48.546;9.896;2024-01-15T04:45:13;5.13;;;2.30;;
21114;SDS011;10715;48.546;9.896;2024-01-15T04:47:39;4.87;;;3.17;;
21114;SDS011;10715;48.546;9.896;2024-01-15T04:50:05;3.90;;;2.83;;
21114;SDS011;10715;48.546;9.896;2024-01-15T04:52:31;3.90;;;1.63;;
21114;SDS011;10715;48.546;9.896;2024-01-15T04:54:57;5.33;;;2.20;;
21114;SDS011;10715;48.546;9.896;2024-01-15T04:57:23;5.27;;;2.37;;
21114;SDS011;10715;48.546;9.896;2024-01-15T04:59:48;4.23;;;2.47;;
21114;SDS011;10715;48.546;9.896;2024-01-15T05:02:14;5.70;;;2.67;;
21114;SDS011;10715;48.546;9.896;2024-01-15T05:04:40;7.83;;;1.30;;
21114;SDS011;10715;48.546;9.896;2024-01-15T05:07:06;8.47;;;2.50;;
21114;SDS011;10715;48.546;9.896;2024-01-15T05:09:33;3.20;;;1.73;;
21114;SDS011;10715;48.546;9.896;2024-01-15T05:11:59;4.97;;;2.00;;
21114;SDS011;10715;48.546;9.896;2024-01-15T05:14:24;6.00;;;2.43;;
21114;SDS011;10715;48.546;9.896;2024-01-15T05:16:50;4.33;;;2.37;;
21114;SDS011;10715;48.546;9.896;2024-01-15T05:19:16;4.03;;;2.00;;
21114;SDS011;10715;48.546;9.896;2024-01-15T05:21:42;3.67;;;1.87;;
21114;SDS011;10715;48.546;9.896;2024-01-15T05:24:08;6.20;;;2.10;;
21114;SDS011;10715;48.546;9.896;2024-01-15T05:26:33;2.17;;;1.53;;
21114;SDS011;10715;48.546;9.896;2024-01-15T05:28:59;9.23;;;3.77;;
21114;SDS011;10715;48.546;9.896;2024-01-15T05:31:25;5.03;;;2.80;;
21114;SDS011;10715;48.546;9.896;2024-01-15T05:33:51;2.43;;;1.93;;
21114;SDS011;10715;48.546;9.896;2024-01-15T05:36:16;5.30;;;1.90;;
21114;SDS011;10715;48.546;9.896;2024-01-15T05:38:42;3.80;;;1.93;;
21114;SDS011;10715;48.546;9.896;2024-01-15T05:41:08;3.33;;;2.20;;
21114;SDS011;10715;48.546;9.896;2024-01-15T05:43:34;2.27;;;1.53;;
21114;SDS011;10715;48.546;9.896;2024-01-15T05:45:59;2.20;;;2.00;;
21114;SDS011;10715;48.546;9.896;2024-01-15T05:48:25;8.17;;;2.53;;
21114;SDS011;10715;48.546;9.896;2024-01-15T05:50:51;4.47;;;1.77;;
21114;SDS011;10715;48.546;9.896;2024-01-15T05:53:16;3.53;;;1.93;;
21114;SDS011;10715;48.546;9.896;2024-01-15T05:55:42;5.03;;;2.43;;
21114;SDS011;10715;48.546;9.896;2024-01-15T05:58:08;4.40;;;1.63;;
21114;SDS011;10715;48.546;9.896;2024-01-15T06:00:34;2.07;;;1.60;;
21114;SDS011;10715;48.546;9.896;2024-01-15T06:03:00;7.70;;;1.70;;
21114;SDS011;10715;48.546;9.896;2024-01-15T06:05:26;4.63;;;1.87;;
21114;SDS011;10715;48.546;9.896;2024-01-15T06:07:52;5.37;;;2.10;;
21114;SDS011;10715;48.546;9.896;2024-01-15T06:10:18;3.90;;;1.87;;
21114;SDS011;10715;48.546;9.896;2024-01-15T06:12:44;4.00;;;2.60;;
21114;SDS011;10715;48.546;9.896;2024-01-15T06:15:10;5.53;;;2.00;;
21114;SDS011;10715;48.546;9.896;2024-01-15T06:17:36;3.60;;;1.30;;
21114;SDS011;10715;48.546;9.896;2024-01-15T06:20:02;3.60;;;3.30;;
21114;SDS011;10715;48.546;9.896;2024-01-15T06:22:29;3.40;;;1.90;;
21114;SDS011;10715;48.546;9.896;2024-01-15T06:24:55;4.43;;;1.90;;
21114;SDS011;10715;48.546;9.896;2024-01-15T06:27:21;3.60;;;3.30;;
21114;SDS011;10715;48.546;9.896;2024-01-15T06:29:46;6.33;;;2.27;;
21114;SDS011;10715;48.546;9.896;2024-01-15T06:32:12;4.13;;;2.23;;
21114;SDS011;10715;48.546;9.896;2024-01-15T06:34:38;4.40;;;2.50;;
21114;SDS011;10715;48.546;9.896;2024-01-15T06:37:04;3.50;;;3.10;;
21114;SDS011;10715;48.546;9.896;2024-01-15T06:39:30;4.53;;;2.87;;
21114;SDS011;10715;48.546;9.896;2024-01-15T06:41:56;6.33;;;3.40;;
21114;SDS011;10715;48.546;9.896;2024-01-15T06:44:22;6.10;;;2.40;;
21114;SDS011;10715;48.546;9.896;2024-01-15T06:46:47;5.00;;;1.83;;
21114;SDS011;10715;48.546;9.896;2024-01-15T06:49:13;7.43;;;2.00;;
21114;SDS011;10715;48.546;9.896;2024-01-15T06:51:39;3.20;;;1.77;;
21114;SDS011;10715;48.546;9.896;2024-01-15T06:54:05;3.83;;;1.67;;
21114;SDS011;10715;48.546;9.896;2024-01-15T06:56:31;5.73;;;2.70;;
21114;SDS011;10715;48.546;9.896;2024-01-15T06:58:57;3.70;;;2.17;;
21114;SDS011;10715;48.546;9.896;2024-01-15T07:01:23;10.50;;;2.50;;
21114;SDS011;10715;48.546;9.896;2024-01-15T07:03:48;3.13;;;1.93;;
21114;SDS011;10715;48.546;9.896;2024-01-15T07:06:14;2.40;;;1.37;;
21114;SDS011;10715;48.546;9.896;2024-01-15T07:08:40;3.10;;;1.90;;
21114;SDS011;10715;48.546;9.896;2024-01-15T07:11:06;3.27;;;1.90;;
21114;SDS011;10715;48.546;9.896;2024-01-15T07:13:33;2.43;;;1.57;;
21114;SDS011;10715;48.546;9.896;2024-01-15T07:15:59;2.70;;;1.90;;
21114;SDS011;10715;48.546;9.896;2024-01-15T07:18:25;5.67;;;2.70;;
21114;SDS011;10715;48.546;9.896;2024-01-15T07:20:51;2.80;;;1.80;;
21114;SDS011;10715;48.546;9.896;2024-01-15T07:23:17;3.60;;;1.77;;
21114;SDS011;10715;48.546;9.896;2024-01-15T07:28:12;3.30;;;2.17;;
21114;SDS011;10715;48.546;9.896;2024-01-15T07:30:38;3.67;;;1.83;;
21114;SDS011;10715;48.546;9.896;2024-01-15T07:33:04;5.87;;;2.40;;
21114;SDS011;10715;48.546;9.896;2024-01-15T07:35:30;8.33;;;3.03;;
21114;SDS011;10715;48.546;9.896;2024-01-15T07:37:56;4.37;;;2.97;;
21114;SDS011;10715;48.546;9.896;2024-01-15T07:40:22;3.60;;;2.17;;
21114;SDS011;10715;48.546;9.896;2024-01-15T07:42:49;7.30;;;3.37;;
21114;SDS011;10715;48.546;9.896;2024-01-15T07:45:15;2.70;;;1.80;;
21114;SDS011;10715;48.546;9.896;2024-01-15T07:47:41;3.93;;;2.90;;
21114;SDS011;10715;48.546;9.896;2024-01-15T07:50:07;3.00;;;2.80;;
21114;SDS011;10715;48.546;9.896;2024-01-15T07:52:33;6.20;;;4.00;;
21114;SDS011;10715;48.546;9.896;2024-01-15T07:54:58;2.77;;;2.23;;
21114;SDS011;10715;48.546;9.896;2024-01-15T07:57:28;9.37;;;3.57;;
21114;SDS011;10715;48.546;9.896;2024-01-15T07:59:54;4.60;;;3.40;;
21114;SDS011;10715;48.546;9.896;2024-01-15T08:02:20;4.00;;;2.73;;
21114;SDS011;10715;48.546;9.896;2024-01-15T08:04:47;5.07;;;2.70;;
21114;SDS011;10715;48.546;9.896;2024-01-15T08:07:12;8.97;;;3.20;;
21114;SDS011;10715;48.546;9.896;2024-01-15T08:09:38;4.40;;;2.80;;
21114;SDS011;10715;48.546;9.896;2024-01-15T08:12:04;8.10;;;3.77;;
21114;SDS011;10715;48.546;9.896;2024-01-15T08:14:31;5.87;;;2.73;;
21114;SDS011;10715;48.546;9.896;2024-01-15T08:16:57;6.10;;;3.20;;
21114;SDS011;10715;48.546;9.896;2024-01-15T08:19:23;3.67;;;3.10;;
21114;SDS011;10715;48.546;9.896;2024-01-15T08:21:49;5.60;;;2.60;;
21114;SDS011;10715;48.546;9.896;2024-01-15T08:24:15;4.93;;;2.00;;
21114;SDS011;10715;48.546;9.896;2024-01-15T08:26:41;8.10;;;2.00;;
21114;SDS011;10715;48.546;9.896;2024-01-15T08:29:07;1.77;;;1.67;;
21114;SDS011;10715;48.546;9.896;2024-01-15T08:31:33;3.20;;;1.90;;
21114;SDS011;10715;48.546;9.896;2024-01-15T08:33:59;2.37;;;1.43;;
21114;SDS011;10715;48.546;9.896;2024-01-15T08:36:26;5.83;;;2.07;;
21114;SDS011;10715;48.546;9.896;2024-01-15T08:38:53;11.57;;;1.67;;
21114;SDS011;10715;48.546;9.896;2024-01-15T08:41:19;3.47;;;1.43;;
21114;SDS011;10715;48.546;9.896;2024-01-15T08:43:44;7.33;;;1.23;;
21114;SDS011;10715;48.546;9.896;2024-01-15T08:46:10;1.47;;;1.07;;
21114;SDS011;10715;48.546;9.896;2024-01-15T08:48:36;1.93;;;1.70;;
21114;SDS011;10715;48.546;9.896;2024-01-15T08:51:02;2.83;;;1.10;;
21114;SDS011;10715;48.546;9.896;2024-01-15T08:53:28;1.23;;;0.90;;
21114;SDS011;10715;48.546;9.896;2024-01-15T08:55:53;1.63;;;1.10;;
21114;SDS011;10715;48.546;9.896;2024-01-15T08:58:19;2.03;;;1.50;;
21114;SDS011;10715;48.546;9.896;2024-01-15T09:00:45;2.30;;;1.13;;
21114;SDS011;10715;48.546;9.896;2024-01-15T09:03:10;2.00;;;0.77;;
21114;SDS011;10715;48.546;9.896;2024-01-15T09:05:36;2.90;;;1.20;;
21114;SDS011;10715;48.546;9.896;2024-01-15T09:08:02;1.70;;;1.20;;
21114;SDS011;10715;48.546;9.896;2024-01-15T09:10:28;2.30;;;1.03;;
21114;SDS011;10715;48.546;9.896;2024-01-15T09:12:55;1.53;;;0.87;;
21114;SDS011;10715;48.546;9.896;2024-01-15T09:15:20;3.20;;;1.73;;
21114;SDS011;10715;48.546;9.896;2024-01-15T09:17:46;2.20;;;1.03;;
21114;SDS011;10715;48.546;9.896;2024-01-15T09:20:12;1.63;;;1.53;;
21114;SDS011;10715;48.546;9.896;2024-01-15T09:22:38;1.67;;;1.43;;
21114;SDS011;10715;48.546;9.896;2024-01-15T09:25:06;2.10;;;0.80;;
21114;SDS011;10715;48.546;9.896;2024-01-15T09:27:33;1.37;;;1.03;;
21114;SDS011;10715;48.546;9.896;2024-01-15T09:29:59;2.53;;;1.63;;
21114;SDS011;10715;48.546;9.896;2024-01-15T09:32:24;2.20;;;1.33;;
21114;SDS011;10715;48.546;9.896;2024-01-15T09:34:50;4.60;;;1.27;;
21114;SDS011;10715;48.546;9.896;2024-01-15T09:37:16;1.73;;;1.20;;
21114;SDS011;10715;48.546;9.896;2024-01-15T09:39:42;1.63;;;1.17;;
21114;SDS011;10715;48.546;9.896;2024-01-15T09:42:08;3.03;;;1.00;;
21114;SDS011;10715;48.546;9.896;2024-01-15T09:44:36;2.90;;;1.10;;
21114;SDS011;10715;48.546;9.896;2024-01-15T09:47:03;2.47;;;1.10;;
21114;SDS011;10715;48.546;9.896;2024-01-15T09:49:29;4.20;;;1.50;;
21114;SDS011;10715;48.546;9.896;2024-01-15T09:51:55;1.97;;;1.03;;
21114;SDS011;10715;48.546;9.896;2024-01-15T09:54:23;3.70;;;1.13;;
21114;SDS011;10715;48.546;9.896;2024-01-15T09:56:49;1.50;;;1.30;;
21114;SDS011;10715;48.546;9.896;2024-01-15T09:59:18;3.30;;;1.20;;
21114;SDS011;10715;48.546;9.896;2024-01-15T10:01:44;2.13;;;1.83;;
21114;SDS011;10715;48.546;9.896;2024-01-15T10:04:10;4.73;;;1.03;;
21114;SDS011;10715;48.546;9.896;2024-01-15T10:06:44;2.70;;;0.90;;
21114;SDS011;10715;48.546;9.896;2024-01-15T10:09:12;2.07;;;1.00;;
21114;SDS011;10715;48.546;9.896;2024-01-15T10:11:41;4.63;;;0.83;;
21114;SDS011;10715;48.546;9.896;2024-01-15T10:14:11;5.47;;;1.00;;
21114;SDS011;10715;48.546;9.896;2024-01-15T10:16:38;8.53;;;1.80;;
21114;SDS011;10715;48.546;9.896;2024-01-15T10:19:10;2.77;;;0.97;;
21114;SDS011;10715;48.546;9.896;2024-01-15T10:21:35;1.70;;;1.60;;
21114;SDS011;10715;48.546;9.896;2024-01-15T10:24:03;2.07;;;1.00;;
21114;SDS011;10715;48.546;9.896;2024-01-15T10:26:29;1.90;;;0.97;;
21114;SDS011;10715;48.546;9.896;2024-01-15T10:28:56;1.27;;;0.80;;
21114;SDS011;10715;48.546;9.896;2024-01-15T10:31:23;1.67;;;1.17;;
21114;SDS011;10715;48.546;9.896;2024-01-15T10:33:49;1.60;;;0.77;;
21114;SDS011;10715;48.546;9.896;2024-01-15T10:36:15;1.00;;;0.70;;
21114;SDS011;10715;48.546;9.896;2024-01-15T10:38:45;1.80;;;1.10;;
21114;SDS011;10715;48.546;9.896;2024-01-15T10:41:11;1.63;;;1.10;;
21114;SDS011;10715;48.546;9.896;2024-01-15T10:43:41;1.50;;;0.80;;
21114;SDS011;10715;48.546;9.896;2024-01-15T10:46:06;2.43;;;0.67;;
21114;SDS011;10715;48.546;9.896;2024-01-15T10:48:33;5.10;;;0.90;;
21114;SDS011;10715;48.546;9.896;2024-01-15T10:51:00;1.13;;;0.80;;
21114;SDS011;10715;48.546;9.896;2024-01-15T10:53:33;2.20;;;0.60;;
21114;SDS011;10715;48.546;9.896;2024-01-15T10:56:04;4.27;;;1.40;;
21114;SDS011;10715;48.546;9.896;2024-01-15T10:58:31;1.23;;;0.80;;
21114;SDS011;10715;48.546;9.896;2024-01-15T11:00:58;3.50;;;1.30;;
21114;SDS011;10715;48.546;9.896;2024-01-15T11:03:24;2.03;;;0.80;;
21114;SDS011;10715;48.546;9.896;2024-01-15T11:05:53;0.70;;;0.53;;
21114;SDS011;10715;48.546;9.896;2024-01-15T11:08:22;1.63;;;1.10;;
21114;SDS011;10715;48.546;9.896;2024-01-15T11:10:50;1.70;;;0.53;;
21114;SDS011;10715;48.546;9.896;2024-01-15T11:13:20;2.40;;;1.13;;
21114;SDS011;10715;48.546;9.896;2024-01-15T11:16:06;0.90;;;0.50;;
21114;SDS011;10715;48.546;9.896;2024-01-15T11:18:37;1.10;;;0.70;;
21114;SDS011;10715;48.546;9.896;2024-01-15T11:23:54;1.50;;;1.37;;
21114;SDS011;10715;48.546;9.896;2024-01-15T11:42:58;1.60;;;0.50;;
21114;SDS011;10715;48.546;9.896;2024-01-15T11:45:24;0.70;;;0.40;;
21114;SDS011;10715;48.546;9.896;2024-01-15T11:50:45;3.77;;;0.50;;
21114;SDS011;10715;48.546;9.896;2024-01-15T11:56:01;1.70;;;0.90;;
21114;SDS011;10715;48.546;9.896;2024-01-15T11:58:29;1.07;;;0.73;;
21114;SDS011;10715;48.546;9.896;2024-01-15T12:00:55;1.20;;;1.00;;
21114;SDS011;10715;48.546;9.896;2024-01-15T12:03:24;0.80;;;0.50;;
21114;SDS011;10715;48.546;9.896;2024-01-15T12:05:51;5.43;;;0.77;;
21114;SDS011;10715;48.546;9.896;2024-01-15T12:08:23;3.00;;;0.70;;
21114;SDS011;10715;48.546;9.896;2024-01-15T12:10:50;1.30;;;0.70;;
21114;SDS011;10715;48.546;9.896;2024-01-15T12:13:16;1.77;;;1.17;;
21114;SDS011;10715;48.546;9.896;2024-01-15T12:15:45;1.30;;;1.20;;
21114;SDS011;10715;48.546;9.896;2024-01-15T12:18:12;3.47;;;1.00;;
21114;SDS011;10715;48.546;9.896;2024-01-15T12:20:40;1.13;;;1.03;;
21114;SDS011;10715;48.546;9.896;2024-01-15T12:23:07;1.57;;;0.87;;
21114;SDS011;10715;48.546;9.896;2024-01-15T12:25:33;1.20;;;0.80;;
21114;SDS011;10715;48.546;9.896;2024-01-15T12:28:00;5.50;;;1.00;;
21114;SDS011;10715;48.546;9.896;2024-01-15T12:30:29;1.30;;;0.73;;
21114;SDS011;10715;48.546;9.896;2024-01-15T12:33:00;2.10;;;1.20;;
21114;SDS011;10715;48.546;9.896;2024-01-15T12:35:29;1.17;;;0.97;;
21114;SDS011;10715;48.546;9.896;2024-01-15T12:37:55;1.23;;;1.07;;
21114;SDS011;10715;48.546;9.896;2024-01-15T12:40:22;1.23;;;1.00;;
21114;SDS011;10715;48.546;9.896;2024-01-15T12:42:48;6.00;;;0.70;;
21114;SDS011;10715;48.546;9.896;2024-01-15T12:45:14;1.00;;;0.73;;
21114;SDS011;10715;48.546;9.896;2024-01-15T12:47:40;1.10;;;0.90;;
21114;SDS011;10715;48.546;9.896;2024-01-15T12:50:10;1.70;;;1.00;;
21114;SDS011;10715;48.546;9.896;2024-01-15T12:52:37;1.27;;;1.10;;
21114;SDS011;10715;48.546;9.896;2024-01-15T12:55:06;2.33;;;1.53;;
21114;SDS011;10715;48.546;9.896;2024-01-15T12:57:34;3.63;;;0.90;;
21114;SDS011;10715;48.546;9.896;2024-01-15T13:00:00;1.53;;;0.67;;
21114;SDS011;10715;48.546;9.896;2024-01-15T13:02:26;1.33;;;0.70;;
21114;SDS011;10715;48.546;9.896;2024-01-15T13:04:51;1.20;;;0.90;;
21114;SDS011;10715;48.546;9.896;2024-01-15T13:07:19;1.27;;;0.70;;
21114;SDS011;10715;48.546;9.896;2024-01-15T13:09:44;1.13;;;1.00;;
21114;SDS011;10715;48.546;9.896;2024-01-15T13:12:10;1.47;;;0.87;;
21114;SDS011;10715;48.546;9.896;2024-01-15T13:14:36;1.70;;;0.97;;
21114;SDS011;10715;48.546;9.896;2024-01-15T13:17:02;3.67;;;1.10;;
21114;SDS011;10715;48.546;9.896;2024-01-15T13:19:28;1.10;;;0.90;;
21114;SDS011;10715;48.546;9.896;2024-01-15T13:21:54;1.80;;;0.90;;
21114;SDS011;10715;48.546;9.896;2024-01-15T13:24:23;1.33;;;0.83;;
21114;SDS011;10715;48.546;9.896;2024-01-15T13:26:49;2.07;;;1.10;;
21114;SDS011;10715;48.546;9.896;2024-01-15T13:29:15;2.10;;;0.93;;
21114;SDS011;10715;48.546;9.896;2024-01-15T13:31:40;1.60;;;1.47;;
21114;SDS011;10715;48.546;9.896;2024-01-15T13:34:06;1.30;;;0.90;;
21114;SDS011;10715;48.546;9.896;2024-01-15T13:36:32;1.83;;;1.10;;
21114;SDS011;10715;48.546;9.896;2024-01-15T13:38:58;2.27;;;1.07;;
21114;SDS011;10715;48.546;9.896;2024-01-15T13:41:24;2.60;;;1.10;;
21114;SDS011;10715;48.546;9.896;2024-01-15T13:43:52;1.83;;;1.20;;
21114;SDS011;10715;48.546;9.896;2024-01-15T13:46:22;1.87;;;1.37;;
21114;SDS011;10715;48.546;9.896;2024-01-15T13:48:54;1.43;;;1.00;;
21114;SDS011;10715;48.546;9.896;2024-01-15T13:51:23;2.53;;;1.10;;
21114;SDS011;10715;48.546;9.896;2024-01-15T13:53:55;1.47;;;1.37;;
21114;SDS011;10715;48.546;9.896;2024-01-15T13:56:21;2.73;;;0.93;;
21114;SDS011;10715;48.546;9.896;2024-01-15T13:58:47;1.60;;;1.40;;
21114;SDS011;10715;48.546;9.896;2024-01-15T14:01:13;1.57;;;1.27;;
21114;SDS011;10715;48.546;9.896;2024-01-15T14:03:39;1.23;;;1.00;;
21114;SDS011;10715;48.546;9.896;2024-01-15T14:06:04;1.30;;;0.90;;
21114;SDS011;10715;48.546;9.896;2024-01-15T14:08:37;2.70;;;1.00;;
21114;SDS011;10715;48.546;9.896;2024-01-15T14:11:03;1.77;;;1.30;;
21114;SDS011;10715;48.546;9.896;2024-01-15T14:13:31;2.03;;;1.60;;
21114;SDS011;10715;48.546;9.896;2024-01-15T14:15:57;3.27;;;1.93;;
21114;SDS011;10715;48.546;9.896;2024-01-15T14:18:23;2.83;;;1.13;;
21114;SDS011;10715;48.546;9.896;2024-01-15T14:20:48;1.67;;;1.10;;
21114;SDS011;10715;48.546;9.896;2024-01-15T14:23:14;4.00;;;1.43;;
21114;SDS011;10715;48.546;9.896;2024-01-15T14:25:40;2.33;;;1.60;;
21114;SDS011;10715;48.546;9.896;2024-01-15T14:28:05;3.37;;;2.10;;
21114;SDS011;10715;48.546;9.896;2024-01-15T14:30:31;3.27;;;2.13;;
21114;SDS011;10715;48.546;9.896;2024-01-15T14:32:57;3.93;;;1.17;;
21114;SDS011;10715;48.546;9.896;2024-01-15T14:35:23;4.20;;;2.10;;
21114;SDS011;10715;48.546;9.896;2024-01-15T14:37:49;2.63;;;1.27;;
21114;SDS011;10715;48.546;9.896;2024-01-15T14:40:14;3.73;;;2.00;;
21114;SDS011;10715;48.546;9.896;2024-01-15T14:42:41;2.30;;;1.13;;
21114;SDS011;10715;48.546;9.896;2024-01-15T14:45:07;1.70;;;1.40;;
21114;SDS011;10715;48.546;9.896;2024-01-15T14:47:37;2.80;;;1.33;;
21114;SDS011;10715;48.546;9.896;2024-01-15T14:50:04;2.07;;;1.33;;
21114;SDS011;10715;48.546;9.896;2024-01-15T14:52:32;1.27;;;1.17;;
21114;SDS011;10715;48.546;9.896;2024-01-15T14:54:58;3.90;;;3.50;;
21114;SDS011;10715;48.546;9.896;2024-01-15T14:57:25;5.53;;;1.83;;
21114;SDS011;10715;48.546;9.896;2024-01-15T14:59:50;8.30;;;4.50;;
21114;SDS011;10715;48.546;9.896;2024-01-15T15:02:16;7.57;;;4.80;;
21114;SDS011;10715;48.546;9.896;2024-01-15T15:04:43;7.73;;;4.43;;
21114;SDS011;10715;48.546;9.896;2024-01-15T15:07:08;4.37;;;2.60;;
21114;SDS011;10715;48.546;9.896;2024-01-15T15:09:35;4.33;;;2.80;;